Burchinal, Iowa
Current Conditions -  °F | °C
As of 7:53 PM on Saturday 25 Oct 2014 (Local Time) from KMCW Reporting Station
Clear Clear  
Wind Chill: 45°   Ceiling: Unl
Heat Index: 48°   Visibility: 10mi
Dew Point: 34°   Wind: 7mph
Humidity: 58%   Direction: 300°WNW
Pressure: 30.08"   Gusts: NA
Location:  43.0122°N, 93.2395°W
Report Text: KMCW 260053Z AUTO 30006KT 10SM CLR 09/01 A3008 RMK AO2 SLP187 T00890011
Loading
Personal Weather Stations






























Interactive Weather Map
Tropical Storm Tracking
New forecast layout! Learn more

10-Day Weather Forecast

Advertisements
Track Severe Weather on mobile